Time,TemperatureF,DewpointF,PressureIn,WindDirection,WindDirectionDegrees,WindSpeedMPH,WindSpeedGustMPH,Humidity,HourlyPrecipIn,Conditions,Clouds,dailyrainin,SolarRadiationWatts/m^2,SoftwareType,DateUTC
2013-03-17 00:00:00,31.0,23.7,30.11,NNE,25,3.0,7.0,74,0.00,,OVC035,0.04,0.00,VWS V14.01,2013-03-17 04:00:00,
2013-03-17 00:05:00,31.0,23.7,30.11,NNE,25,3.0,7.0,74,0.00,,OVC031,0.00,0.00,VWS V14.01,2013-03-17 04:05:00,
2013-03-17 00:10:00,31.0,23.7,30.11,NNE,25,0.0,7.0,74,0.00,,OVC031,0.00,0.00,VWS V14.01,2013-03-17 04:10:00,
2013-03-17 00:15:00,31.0,23.7,30.11,NNE,24,1.0,6.0,74,0.00,,OVC031,0.00,0.00,VWS V14.01,2013-03-17 04:15:00,
2013-03-17 00:20:00,31.0,23.7,30.11,NNE,17,5.0,9.0,74,0.00,,OVC031,0.00,0.00,VWS V14.01,2013-03-17 04:20:00,
2013-03-17 00:25:00,31.0,23.7,30.11,NNE,17,5.0,7.0,74,0.00,,OVC031,0.00,0.00,VWS V14.01,2013-03-17 04:25:00,
2013-03-17 00:30:00,31.2,23.9,30.11,NNE,17,3.0,8.0,74,0.00,,OVC031,0.00,0.00,VWS V14.01,2013-03-17 04:30:00,
2013-03-17 00:35:00,31.0,23.7,30.11,NNE,17,7.0,8.0,74,0.00,,OVC031,0.00,0.00,VWS V14.01,2013-03-17 04:35:00,
2013-03-17 00:40:00,31.0,23.7,30.11,NNE,15,10.0,10.0,74,0.00,,OVC031,0.00,0.00,VWS V14.01,2013-03-17 04:40:00,
2013-03-17 00:45:00,31.0,23.4,30.11,NNE,12,5.0,12.0,73,0.00,,OVC031,0.00,0.00,VWS V14.01,2013-03-17 04:45:00,
2013-03-17 00:50:00,30.9,23.0,30.11,North,360,5.0,12.0,72,0.00,,OVC031,0.00,0.00,VWS V14.01,2013-03-17 04:50:00,
2013-03-17 00:55:00,30.9,23.0,30.11,NNW,348,7.0,10.0,72,0.00,,OVC031,0.00,0.00,VWS V14.01,2013-03-17 04:55:00,
2013-03-17 01:00:00,30.9,23.0,30.12,NW,311,5.0,9.0,72,0.00,,OVC031,0.00,0.00,VWS V14.01,2013-03-17 05:00:00,
2013-03-17 01:05:00,30.9,23.0,30.12,NW,311,3.0,9.0,72,0.00,,OVC025,0.00,0.00,VWS V14.01,2013-03-17 05:05:00,
2013-03-17 01:10:00,30.9,23.0,30.12,NW,311,1.0,8.0,72,0.00,,OVC025,0.00,0.00,VWS V14.01,2013-03-17 05:10:00,
2013-03-17 01:15:00,30.7,22.8,30.12,NW,304,0.0,8.0,72,0.00,,OVC025,0.00,0.00,VWS V14.01,2013-03-17 05:15:00,
2013-03-17 01:20:00,30.7,22.8,30.12,NW,304,1.0,10.0,72,0.00,,OVC025,0.00,0.00,VWS V14.01,2013-03-17 05:20:00,
2013-03-17 01:25:00,30.7,22.8,30.12,WNW,294,9.0,13.0,72,0.00,,OVC025,0.00,0.00,VWS V14.01,2013-03-17 05:25:00,
2013-03-17 01:30:00,30.6,22.7,30.12,NW,317,7.0,13.0,72,0.00,,OVC025,0.00,0.00,VWS V14.01,2013-03-17 05:30:00,
2013-03-17 01:35:00,30.4,22.1,30.12,NW,306,10.0,12.0,71,0.00,,OVC025,0.00,0.00,VWS V14.01,2013-03-17 05:35:00,
2013-03-17 01:40:00,30.4,22.1,30.12,NW,306,8.0,9.0,71,0.00,,OVC025,0.00,0.00,VWS V14.01,2013-03-17 05:40:00,
2013-03-17 01:45:00,30.4,21.8,30.12,WNW,297,5.0,9.0,70,0.00,,OVC025,0.00,0.00,VWS V14.01,2013-03-17 05:45:00,
2013-03-17 01:50:00,30.3,21.7,30.12,WNW,298,4.0,7.0,70,0.00,,OVC025,0.00,0.00,VWS V14.01,2013-03-17 05:50:00,
2013-03-17 01:55:00,30.3,21.4,30.12,WNW,299,7.0,10.0,69,0.00,,OVC025,0.00,0.00,VWS V14.01,2013-03-17 05:55:00,
2013-03-17 02:00:00,30.3,21.0,30.12,WNW,299,1.0,6.0,68,0.00,,OVC025,0.00,0.00,VWS V14.01,2013-03-17 06:00:00,
2013-03-17 02:05:00,30.3,21.0,30.12,WNW,299,3.0,3.0,68,0.00,,OVC025,0.00,0.00,VWS V14.01,2013-03-17 06:05:00,
2013-03-17 02:10:00,30.3,21.4,30.12,WNW,299,1.0,4.0,69,0.00,,OVC025,0.00,0.00,VWS V14.01,2013-03-17 06:10:00,
2013-03-17 02:15:00,30.3,21.4,30.12,WNW,299,3.0,4.0,69,0.00,,OVC025,0.00,0.00,VWS V14.01,2013-03-17 06:15:00,
2013-03-17 02:20:00,30.3,21.4,30.12,WNW,299,3.0,4.0,69,0.00,,OVC025,0.00,0.00,VWS V14.01,2013-03-17 06:20:00,
2013-03-17 02:25:00,30.1,21.2,30.12,WNW,299,0.0,4.0,69,0.00,,OVC025,0.00,0.00,VWS V14.01,2013-03-17 06:25:00,
2013-03-17 02:30:00,30.1,21.5,30.13,WNW,299,3.0,3.0,70,0.00,,OVC025,0.00,0.00,VWS V14.01,2013-03-17 06:30:00,
2013-03-17 02:35:00,30.1,21.5,30.13,WNW,299,1.0,4.0,70,0.00,,OVC025,0.00,0.00,VWS V14.01,2013-03-17 06:35:00,
2013-03-17 02:40:00,30.1,21.5,30.13,WNW,299,2.0,4.0,70,0.00,,OVC025,0.00,0.00,VWS V14.01,2013-03-17 06:40:00,
2013-03-17 02:45:00,30.1,21.5,30.13,WNW,299,2.0,4.0,70,0.00,,OVC025,0.00,0.00,VWS V14.01,2013-03-17 06:45:00,
2013-03-17 02:50:00,30.3,21.7,30.13,WNW,299,2.0,3.0,70,0.00,,OVC025,0.00,0.00,VWS V14.01,2013-03-17 06:50:00,
2013-03-17 02:55:00,30.3,21.7,30.13,WNW,299,0.0,3.0,70,0.00,,OVC025,0.00,0.00,VWS V14.01,2013-03-17 06:55:00,
2013-03-17 03:00:00,30.3,21.7,30.13,WNW,299,1.0,2.0,70,0.00,,OVC025,0.00,0.00,VWS V14.01,2013-03-17 07:00:00,
2013-03-17 03:05:00,30.3,21.7,30.13,WNW,299,1.0,2.0,70,0.00,,OVC034,0.00,0.00,VWS V14.01,2013-03-17 07:05:00,
2013-03-17 03:10:00,30.3,21.7,30.13,WNW,299,3.0,4.0,70,0.00,,OVC034,0.00,0.00,VWS V14.01,2013-03-17 07:10:00,
2013-03-17 03:15:00,30.3,21.7,30.13,WNW,299,2.0,3.0,70,0.00,,OVC034,0.00,0.00,VWS V14.01,2013-03-17 07:15:00,
2013-03-17 03:20:00,30.3,21.7,30.13,WNW,299,0.0,3.0,70,0.00,,OVC034,0.00,0.00,VWS V14.01,2013-03-17 07:20:00,
2013-03-17 03:25:00,30.3,21.7,30.13,WNW,299,1.0,2.0,70,0.00,,OVC034,0.00,0.00,VWS V14.01,2013-03-17 07:25:00,
2013-03-17 03:30:00,30.3,22.0,30.14,WNW,299,2.0,3.0,71,0.00,,OVC034,0.00,0.00,VWS V14.01,2013-03-17 07:30:00,
2013-03-17 03:35:00,30.3,22.0,30.14,WNW,299,0.0,2.0,71,0.00,,OVC034,0.00,0.00,VWS V14.01,2013-03-17 07:35:00,
2013-03-17 03:40:00,30.3,22.0,30.14,WNW,299,1.0,2.0,71,0.00,,OVC034,0.00,0.00,VWS V14.01,2013-03-17 07:40:00,
2013-03-17 03:45:00,30.3,22.4,30.14,WNW,299,0.0,3.0,72,0.00,,OVC034,0.00,0.00,VWS V14.01,2013-03-17 07:45:00,
2013-03-17 03:50:00,30.3,22.4,30.14,WNW,299,1.0,6.0,72,0.00,,OVC034,0.00,0.00,VWS V14.01,2013-03-17 07:50:00,
2013-03-17 03:55:00,30.3,22.4,30.14,WNW,299,2.0,6.0,72,0.00,,OVC034,0.00,0.00,VWS V14.01,2013-03-17 07:55:00,
2013-03-17 04:00:00,30.4,22.1,30.14,WNW,300,4.0,6.0,71,0.00,,OVC034,0.00,0.00,VWS V14.01,2013-03-17 08:00:00,
2013-03-17 04:05:00,30.4,21.8,30.14,WNW,300,5.0,5.0,70,0.00,,OVC034,0.00,0.00,VWS V14.01,2013-03-17 08:05:00,
2013-03-17 04:10:00,30.6,22.0,30.14,NW,313,9.0,9.0,70,0.00,,OVC034,0.00,0.00,VWS V14.01,2013-03-17 08:10:00,
2013-03-17 04:15:00,30.7,22.1,30.14,NW,318,6.0,8.0,70,0.00,,OVC034,0.00,0.00,VWS V14.01,2013-03-17 08:15:00,
2013-03-17 04:20:00,30.7,22.1,30.14,NNW,327,5.0,9.0,70,0.00,,OVC034,0.00,0.00,VWS V14.01,2013-03-17 08:20:00,
2013-03-17 04:25:00,30.9,22.3,30.14,NW,318,8.0,10.0,70,0.00,,OVC034,0.00,0.00,VWS V14.01,2013-03-17 08:25:00,
2013-03-17 04:30:00,30.7,22.4,30.15,NNW,336,10.0,12.0,71,0.00,,OVC034,0.00,0.00,VWS V14.01,2013-03-17 08:30:00,
2013-03-17 04:35:00,29.7,20.1,30.15,NNW,330,7.0,17.0,67,0.00,,OVC034,0.00,0.00,VWS V14.01,2013-03-17 08:35:00,
2013-03-17 04:40:00,29.1,19.5,30.15,NNW,329,4.0,16.0,67,0.00,,OVC034,0.00,0.00,VWS V14.01,2013-03-17 08:40:00,
2013-03-17 04:45:00,28.8,19.2,30.16,NNW,330,6.0,13.0,67,0.00,,OVC034,0.00,0.00,VWS V14.01,2013-03-17 08:45:00,
2013-03-17 04:50:00,28.2,18.3,30.16,NNW,344,6.0,15.0,66,0.00,,OVC034,0.00,0.00,VWS V14.01,2013-03-17 08:50:00,
2013-03-17 04:55:00,27.9,18.4,30.16,NNW,338,4.0,13.0,67,0.00,,OVC034,0.00,0.00,VWS V14.01,2013-03-17 08:55:00,
2013-03-17 05:00:00,27.6,17.7,30.16,North,351,7.0,13.0,66,0.00,,OVC034,0.00,0.00,VWS V14.01,2013-03-17 09:00:00,
2013-03-17 05:05:00,27.3,17.5,30.16,NNW,336,6.0,9.0,66,0.00,,OVC031,0.00,0.00,VWS V14.01,2013-03-17 09:05:00,
2013-03-17 05:10:00,27.2,17.4,30.16,NNW,333,3.0,12.0,66,0.00,,OVC031,0.00,0.00,VWS V14.01,2013-03-17 09:10:00,
2013-03-17 05:15:00,27.0,16.8,30.16,NNW,331,9.0,14.0,65,0.00,,OVC031,0.00,0.00,VWS V14.01,2013-03-17 09:15:00,
2013-03-17 05:20:00,26.9,16.7,30.16,NNW,339,3.0,12.0,65,0.00,,OVC031,0.00,0.00,VWS V14.01,2013-03-17 09:20:00,
2013-03-17 05:25:00,26.9,17.1,30.16,NNW,331,7.0,11.0,66,0.00,,OVC031,0.00,0.00,VWS V14.01,2013-03-17 09:25:00,
2013-03-17 05:30:00,26.7,16.9,30.16,NNW,328,4.0,11.0,66,0.00,,OVC031,0.00,0.00,VWS V14.01,2013-03-17 09:30:00,
2013-03-17 05:35:00,26.7,16.9,30.16,NW,323,7.0,10.0,66,0.00,,OVC031,0.00,0.00,VWS V14.01,2013-03-17 09:35:00,
2013-03-17 05:40:00,26.6,16.8,30.16,NNW,331,7.0,11.0,66,0.00,,OVC031,0.00,0.00,VWS V14.01,2013-03-17 09:40:00,
2013-03-17 05:45:00,26.6,16.8,30.17,NNW,338,5.0,8.0,66,0.00,,OVC031,0.00,0.00,VWS V14.01,2013-03-17 09:45:00,
2013-03-17 05:50:00,26.4,16.6,30.17,North,351,2.0,9.0,66,0.00,,OVC031,0.00,0.00,VWS V14.01,2013-03-17 09:50:00,
2013-03-17 05:55:00,26.4,16.6,30.17,NNW,330,4.0,9.0,66,0.00,,OVC031,0.00,0.00,VWS V14.01,2013-03-17 09:55:00,
2013-03-17 06:00:00,26.3,16.5,30.17,NNW,330,4.0,5.0,66,0.00,,OVC031,0.00,0.00,VWS V14.01,2013-03-17 10:00:00,
2013-03-17 06:05:00,26.3,16.9,30.17,NNW,331,4.0,7.0,67,0.00,,CLR,0.00,0.00,VWS V14.01,2013-03-17 10:05:00,
2013-03-17 06:10:00,26.3,16.9,30.17,NW,317,6.0,13.0,67,0.00,,CLR,0.00,0.00,VWS V14.01,2013-03-17 10:10:00,
2013-03-17 06:15:00,26.1,16.7,30.18,NNW,337,6.0,7.0,67,0.00,,CLR,0.00,0.00,VWS V14.01,2013-03-17 10:15:00,
2013-03-17 06:20:00,26.0,16.6,30.18,NNW,337,8.0,8.0,67,0.00,,CLR,0.00,0.00,VWS V14.01,2013-03-17 10:20:00,
2013-03-17 06:25:00,26.0,16.6,30.18,NNW,337,5.0,8.0,67,0.00,,CLR,0.00,0.00,VWS V14.01,2013-03-17 10:25:00,
2013-03-17 06:30:00,26.0,16.6,30.19,NNW,338,4.0,6.0,67,0.00,,CLR,0.00,0.00,VWS V14.01,2013-03-17 10:30:00,
2013-03-17 06:35:00,25.8,16.4,30.19,NNW,338,5.0,7.0,67,0.00,,CLR,0.00,0.00,VWS V14.01,2013-03-17 10:35:00,
2013-03-17 06:40:00,25.7,16.3,30.19,NNW,337,7.0,9.0,67,0.00,,CLR,0.00,0.00,VWS V14.01,2013-03-17 10:40:00,
2013-03-17 06:45:00,25.7,16.6,30.20,NNW,337,8.0,8.0,68,0.00,,CLR,0.00,0.00,VWS V14.01,2013-03-17 10:45:00,
2013-03-17 06:50:00,25.7,16.6,30.20,NNW,338,4.0,6.0,68,0.00,,CLR,0.00,0.00,VWS V14.01,2013-03-17 10:50:00,
2013-03-17 06:55:00,25.7,16.6,30.20,NNW,336,3.0,8.0,68,0.00,,CLR,0.00,0.00,VWS V14.01,2013-03-17 10:55:00,
2013-03-17 07:00:00,25.6,16.5,30.20,NNW,336,1.0,5.0,68,0.00,,CLR,0.00,0.00,VWS V14.01,2013-03-17 11:00:00,
2013-03-17 07:05:00,25.6,16.5,30.20,NNW,336,1.0,5.0,68,0.00,,CLR,0.00,0.00,VWS V14.01,2013-03-17 11:05:00,
2013-03-17 07:10:00,25.4,16.7,30.20,NNW,336,0.0,7.0,69,0.00,,CLR,0.00,0.00,VWS V14.01,2013-03-17 11:10:00,
2013-03-17 07:15:00,25.3,16.6,30.21,NNW,336,1.0,4.0,69,0.00,,CLR,0.00,0.00,VWS V14.01,2013-03-17 11:15:00,
2013-03-17 07:20:00,25.3,16.6,30.21,NNW,336,4.0,4.0,69,0.00,,CLR,0.00,0.00,VWS V14.01,2013-03-17 11:20:00,
2013-03-17 07:25:00,25.3,16.6,30.21,NNW,336,2.0,5.0,69,0.00,,CLR,0.00,0.00,VWS V14.01,2013-03-17 11:25:00,
2013-03-17 07:30:00,25.1,16.4,30.22,NNW,336,3.0,3.0,69,0.00,,CLR,0.00,0.00,VWS V14.01,2013-03-17 11:30:00,
2013-03-17 07:35:00,25.3,16.6,30.22,NNW,336,1.0,4.0,69,0.00,,CLR,0.00,0.00,VWS V14.01,2013-03-17 11:35:00,
2013-03-17 07:40:00,25.3,16.6,30.22,NNW,336,3.0,3.0,69,0.00,,CLR,0.00,0.00,VWS V14.01,2013-03-17 11:40:00,
2013-03-17 07:45:00,25.3,16.6,30.23,NNW,336,0.0,3.0,69,0.00,,CLR,0.00,0.00,VWS V14.01,2013-03-17 11:45:00,
2013-03-17 07:50:00,25.3,16.6,30.23,NNW,336,3.0,6.0,69,0.00,,CLR,0.00,7.00,VWS V14.01,2013-03-17 11:50:00,
2013-03-17 07:55:00,25.4,16.7,30.23,NNW,336,1.0,4.0,69,0.00,,CLR,0.00,11.00,VWS V14.01,2013-03-17 11:55:00,
2013-03-17 08:00:00,25.4,17.0,30.23,NNW,336,2.0,3.0,70,0.00,,CLR,0.00,14.00,VWS V14.01,2013-03-17 12:00:00,
2013-03-17 08:05:00,25.4,17.0,30.23,NNW,336,3.0,3.0,70,0.00,,CLR,0.00,19.00,VWS V14.01,2013-03-17 12:05:00,
2013-03-17 08:10:00,25.6,17.2,30.23,NNW,336,1.0,4.0,70,0.00,,CLR,0.00,26.00,VWS V14.01,2013-03-17 12:10:00,
2013-03-17 08:15:00,25.6,17.2,30.23,NNW,336,3.0,4.0,70,0.00,,CLR,0.00,35.00,VWS V14.01,2013-03-17 12:15:00,
2013-03-17 08:20:00,25.6,17.2,30.23,NNW,336,0.0,5.0,70,0.00,,CLR,0.00,42.00,VWS V14.01,2013-03-17 12:20:00,
2013-03-17 08:25:00,25.8,17.4,30.23,NNW,336,2.0,4.0,70,0.00,,CLR,0.00,54.00,VWS V14.01,2013-03-17 12:25:00,
2013-03-17 08:30:00,26.1,17.7,30.24,NNW,346,0.0,8.0,70,0.00,,CLR,0.00,58.00,VWS V14.01,2013-03-17 12:30:00,
2013-03-17 08:35:00,26.4,17.6,30.24,North,11,2.0,7.0,69,0.00,,CLR,0.00,67.00,VWS V14.01,2013-03-17 12:35:00,
2013-03-17 08:40:00,26.6,17.5,30.24,NNE,22,3.0,10.0,68,0.00,,CLR,0.00,76.00,VWS V14.01,2013-03-17 12:40:00,
2013-03-17 08:45:00,26.6,17.1,30.25,North,360,3.0,7.0,67,0.00,,CLR,0.00,91.00,VWS V14.01,2013-03-17 12:45:00,
2013-03-17 08:50:00,26.7,17.2,30.25,NNE,23,1.0,8.0,67,0.00,,CLR,0.00,105.00,VWS V14.01,2013-03-17 12:50:00,
2013-03-17 08:55:00,26.9,17.4,30.25,NNE,13,3.0,12.0,67,0.00,,CLR,0.00,113.00,VWS V14.01,2013-03-17 12:55:00,
2013-03-17 09:00:00,26.9,17.1,30.26,North,11,8.0,11.0,66,0.00,,CLR,0.00,118.00,VWS V14.01,2013-03-17 13:00:00,
2013-03-17 09:05:00,26.9,17.1,30.26,NE,42,14.0,14.0,66,0.00,,CLR,0.00,109.00,VWS V14.01,2013-03-17 13:05:00,
2013-03-17 09:10:00,26.9,17.1,30.26,North,360,5.0,12.0,66,0.00,,CLR,0.00,109.00,VWS V14.01,2013-03-17 13:10:00,
2013-03-17 09:15:00,26.7,17.2,30.26,NNE,29,1.0,8.0,67,0.00,,CLR,0.00,123.00,VWS V14.01,2013-03-17 13:15:00,
2013-03-17 09:20:00,26.9,17.8,30.26,NNE,13,5.0,10.0,68,0.00,,CLR,0.00,137.00,VWS V14.01,2013-03-17 13:20:00,
2013-03-17 09:25:00,27.0,17.9,30.26,NNW,342,2.0,8.0,68,0.00,,CLR,0.00,148.00,VWS V14.01,2013-03-17 13:25:00,
2013-03-17 09:30:00,27.0,17.9,30.28,NNE,32,5.0,6.0,68,0.00,,CLR,0.00,158.00,VWS V14.01,2013-03-17 13:30:00,
2013-03-17 09:35:00,27.0,18.2,30.28,NNE,13,1.0,7.0,69,0.00,,CLR,0.00,160.00,VWS V14.01,2013-03-17 13:35:00,
2013-03-17 09:40:00,27.0,17.9,30.28,North,360,3.0,7.0,68,0.00,,CLR,0.00,172.00,VWS V14.01,2013-03-17 13:40:00,
2013-03-17 09:45:00,27.2,18.4,30.28,NE,40,1.0,6.0,69,0.00,,CLR,0.00,186.00,VWS V14.01,2013-03-17 13:45:00,
2013-03-17 09:50:00,26.9,17.8,30.28,NNE,28,5.0,8.0,68,0.00,,CLR,0.00,193.00,VWS V14.01,2013-03-17 13:50:00,
2013-03-17 09:55:00,26.9,17.8,30.28,NNE,15,3.0,9.0,68,0.00,,CLR,0.00,221.00,VWS V14.01,2013-03-17 13:55:00,
2013-03-17 10:00:00,27.0,17.9,30.29,NNE,14,6.0,9.0,68,0.00,,CLR,0.00,236.00,VWS V14.01,2013-03-17 14:00:00,
2013-03-17 10:05:00,27.0,17.9,30.29,NNE,28,5.0,7.0,68,0.00,,CLR,0.00,234.00,VWS V14.01,2013-03-17 14:05:00,
2013-03-17 10:10:00,27.0,18.2,30.29,NNE,30,6.0,7.0,69,0.00,,CLR,0.00,218.00,VWS V14.01,2013-03-17 14:10:00,
2013-03-17 10:15:00,27.2,18.4,30.30,NE,39,4.0,8.0,69,0.00,,CLR,0.00,225.00,VWS V14.01,2013-03-17 14:15:00,
2013-03-17 10:20:00,27.2,18.4,30.30,NNE,17,4.0,12.0,69,0.00,,CLR,0.00,221.00,VWS V14.01,2013-03-17 14:20:00,
2013-03-17 10:25:00,27.2,18.4,30.30,NE,42,4.0,9.0,69,0.00,,CLR,0.00,267.00,VWS V14.01,2013-03-17 14:25:00,
2013-03-17 10:30:00,27.2,18.4,30.30,NE,43,3.0,10.0,69,0.00,,CLR,0.00,267.00,VWS V14.01,2013-03-17 14:30:00,
2013-03-17 10:35:00,27.3,18.5,30.30,NNW,348,4.0,11.0,69,0.00,,CLR,0.00,288.00,VWS V14.01,2013-03-17 14:35:00,
2013-03-17 10:40:00,27.5,18.7,30.30,NE,45,8.0,11.0,69,0.00,,CLR,0.00,278.00,VWS V14.01,2013-03-17 14:40:00,
2013-03-17 10:45:00,27.3,18.5,30.30,NNE,21,5.0,13.0,69,0.00,,CLR,0.00,269.00,VWS V14.01,2013-03-17 14:45:00,
2013-03-17 10:50:00,27.5,18.7,30.30,North,351,3.0,11.0,69,0.00,,CLR,0.00,476.00,VWS V14.01,2013-03-17 14:50:00,
2013-03-17 10:55:00,27.9,18.7,30.30,ENE,62,7.0,11.0,68,0.00,,CLR,0.00,450.00,VWS V14.01,2013-03-17 14:55:00,
2013-03-17 11:00:00,27.8,18.6,30.30,NE,44,7.0,12.0,68,0.00,,CLR,0.00,359.00,VWS V14.01,2013-03-17 15:00:00,
2013-03-17 11:05:00,27.9,18.7,30.30,NE,43,4.0,9.0,68,0.00,,FEW021,0.00,355.00,VWS V14.01,2013-03-17 15:05:00,
2013-03-17 11:10:00,27.9,18.7,30.30,ENE,57,5.0,12.0,68,0.00,,FEW021,0.00,283.00,VWS V14.01,2013-03-17 15:10:00,
2013-03-17 11:15:00,27.8,18.6,30.30,NE,44,6.0,12.0,68,0.00,,FEW021,0.00,325.00,VWS V14.01,2013-03-17 15:15:00,
2013-03-17 11:20:00,27.9,18.4,30.30,ENE,65,8.0,16.0,67,0.00,,FEW021,0.00,489.00,VWS V14.01,2013-03-17 15:20:00,
2013-03-17 11:25:00,27.8,17.9,30.30,NE,51,7.0,12.0,66,0.00,,FEW021,0.00,260.00,VWS V14.01,2013-03-17 15:25:00,
2013-03-17 11:30:00,28.1,18.9,30.30,NE,50,7.0,14.0,68,0.00,,FEW021,0.00,288.00,VWS V14.01,2013-03-17 15:30:00,
2013-03-17 11:35:00,28.2,19.0,30.30,NE,52,11.0,12.0,68,0.00,,FEW021,0.00,236.00,VWS V14.01,2013-03-17 15:35:00,
2013-03-17 11:40:00,28.4,18.9,30.30,NE,56,6.0,11.0,67,0.00,,FEW021,0.00,494.00,VWS V14.01,2013-03-17 15:40:00,
2013-03-17 11:45:00,28.4,17.4,30.30,ENE,57,9.0,17.0,63,0.00,,FEW021,0.00,350.00,VWS V14.01,2013-03-17 15:45:00,
2013-03-17 11:50:00,28.1,16.8,30.30,NE,46,4.0,14.0,62,0.00,,FEW021,0.00,318.00,VWS V14.01,2013-03-17 15:50:00,
2013-03-17 11:55:00,28.2,17.6,30.30,ENE,59,10.0,10.0,64,0.00,,FEW021,0.00,294.00,VWS V14.01,2013-03-17 15:55:00,
2013-03-17 12:00:00,28.2,17.2,30.30,ENE,66,7.0,12.0,63,0.00,,FEW021,0.00,320.00,VWS V14.01,2013-03-17 16:00:00,
2013-03-17 12:05:00,28.2,17.2,30.30,ENE,61,9.0,11.0,63,0.00,,FEW021,0.00,352.00,VWS V14.01,2013-03-17 16:05:00,
2013-03-17 12:10:00,27.9,15.8,30.30,NE,40,7.0,15.0,60,0.00,,FEW021,0.00,431.00,VWS V14.01,2013-03-17 16:10:00,
2013-03-17 12:15:00,28.1,16.0,30.30,ENE,78,3.0,13.0,60,0.00,,FEW021,0.00,376.00,VWS V14.01,2013-03-17 16:15:00,
2013-03-17 12:20:00,28.1,15.6,30.30,ENE,77,12.0,17.0,59,0.00,,FEW021,0.00,413.00,VWS V14.01,2013-03-17 16:20:00,
2013-03-17 12:25:00,27.9,15.1,30.30,ENE,61,7.0,20.0,58,0.00,,FEW021,0.00,469.00,VWS V14.01,2013-03-17 16:25:00,
2013-03-17 12:30:00,27.9,15.4,30.31,NE,42,8.0,15.0,59,0.00,,FEW021,0.00,540.00,VWS V14.01,2013-03-17 16:30:00,
2013-03-17 12:35:00,28.1,15.6,30.31,ENE,65,10.0,15.0,59,0.00,,FEW021,0.00,345.00,VWS V14.01,2013-03-17 16:35:00,
2013-03-17 12:40:00,28.5,16.0,30.31,NE,38,7.0,12.0,59,0.00,,FEW021,0.00,575.00,VWS V14.01,2013-03-17 16:40:00,
2013-03-17 12:45:00,28.5,14.8,30.31,ENE,57,14.0,14.0,56,0.00,,FEW021,0.00,557.00,VWS V14.01,2013-03-17 16:45:00,
2013-03-17 12:50:00,28.4,14.3,30.31,NE,47,5.0,16.0,55,0.00,,FEW021,0.00,561.00,VWS V14.01,2013-03-17 16:50:00,
2013-03-17 12:55:00,28.2,13.3,30.31,ENE,60,4.0,15.0,53,0.00,,FEW021,0.00,619.00,VWS V14.01,2013-03-17 16:55:00,
2013-03-17 13:00:00,28.8,15.1,30.31,ENE,70,14.0,16.0,56,0.00,,FEW021,0.00,592.00,VWS V14.01,2013-03-17 17:00:00,
2013-03-17 13:05:00,29.0,15.7,30.31,NE,55,7.0,18.0,57,0.00,,BKN036,0.00,485.00,VWS V14.01,2013-03-17 17:05:00,
2013-03-17 13:10:00,28.8,15.5,30.31,ENE,59,2.0,13.0,57,0.00,,BKN036,0.00,483.00,VWS V14.01,2013-03-17 17:10:00,
2013-03-17 13:15:00,29.0,16.1,30.31,NE,46,3.0,13.0,58,0.00,,BKN036,0.00,568.00,VWS V14.01,2013-03-17 17:15:00,
2013-03-17 13:20:00,29.4,16.5,30.31,ENE,66,3.0,12.0,58,0.00,,BKN036,0.00,573.00,VWS V14.01,2013-03-17 17:20:00,
2013-03-17 13:25:00,29.3,16.0,30.31,ENE,76,12.0,14.0,57,0.00,,BKN036,0.00,519.00,VWS V14.01,2013-03-17 17:25:00,
2013-03-17 13:30:00,28.8,15.9,30.31,ENE,66,10.0,15.0,58,0.00,,BKN036,0.00,675.00,VWS V14.01,2013-03-17 17:30:00,
2013-03-17 13:35:00,28.8,16.3,30.31,NE,56,10.0,14.0,59,0.00,,BKN036,0.00,577.00,VWS V14.01,2013-03-17 17:35:00,
2013-03-17 13:40:00,28.8,16.7,30.31,ENE,57,10.0,16.0,60,0.00,,BKN036,0.00,657.00,VWS V14.01,2013-03-17 17:40:00,
2013-03-17 13:45:00,29.0,17.2,30.30,ENE,65,9.0,12.0,61,0.00,,BKN036,0.00,410.00,VWS V14.01,2013-03-17 17:45:00,
2013-03-17 13:50:00,29.1,17.0,30.30,ENE,64,9.0,15.0,60,0.00,,BKN036,0.00,373.00,VWS V14.01,2013-03-17 17:50:00,
2013-03-17 13:55:00,29.3,17.5,30.30,ENE,63,10.0,14.0,61,0.00,,BKN036,0.00,635.00,VWS V14.01,2013-03-17 17:55:00,
2013-03-17 14:00:00,29.3,17.9,30.30,ENE,63,8.0,16.0,62,0.00,,BKN036,0.00,403.00,VWS V14.01,2013-03-17 18:00:00,
2013-03-17 14:05:00,29.4,17.6,30.30,ENE,59,5.0,14.0,61,0.00,,OVC036,0.00,387.00,VWS V14.01,2013-03-17 18:05:00,
2013-03-17 14:10:00,29.3,17.9,30.30,NE,56,5.0,13.0,62,0.00,,OVC036,0.00,554.00,VWS V14.01,2013-03-17 18:10:00,
2013-03-17 14:15:00,29.5,18.5,30.30,ENE,61,11.0,16.0,63,0.00,,OVC036,0.00,396.00,VWS V14.01,2013-03-17 18:15:00,
2013-03-17 14:20:00,29.3,17.9,30.30,ENE,59,10.0,13.0,62,0.00,,OVC036,0.00,469.00,VWS V14.01,2013-03-17 18:20:00,
2013-03-17 14:25:00,29.3,17.9,30.30,ENE,70,7.0,9.0,62,0.00,,OVC036,0.00,420.00,VWS V14.01,2013-03-17 18:25:00,
2013-03-17 14:30:00,30.0,19.0,30.30,ENE,68,5.0,11.0,63,0.00,,OVC036,0.00,381.00,VWS V14.01,2013-03-17 18:30:00,
2013-03-17 14:34:00,29.8,18.0,30.30,ENE,67,10.0,14.0,61,0.00,,OVC036,0.00,299.00,VWS V14.01,2013-03-17 18:34:00,
2013-03-17 14:39:00,29.1,17.3,30.30,NE,53,8.0,17.0,61,0.00,,OVC036,0.00,269.00,VWS V14.01,2013-03-17 18:39:00,
2013-03-17 14:44:00,28.8,17.4,30.30,ENE,63,4.0,14.0,62,0.00,,OVC036,0.00,274.00,VWS V14.01,2013-03-17 18:44:00,
2013-03-17 14:49:00,29.0,18.0,30.30,NE,49,8.0,14.0,63,0.00,,OVC036,0.00,313.00,VWS V14.01,2013-03-17 18:49:00,
2013-03-17 14:54:00,29.1,18.5,30.30,ENE,57,7.0,17.0,64,0.00,,OVC036,0.00,320.00,VWS V14.01,2013-03-17 18:54:00,
2013-03-17 15:00:00,29.4,18.7,30.29,ENE,61,8.0,9.0,64,0.00,,OVC036,0.00,202.00,VWS V14.01,2013-03-17 19:00:00,
2013-03-17 15:05:00,29.1,18.1,30.29,NE,51,6.0,14.0,63,0.00,,OVC033,0.00,255.00,VWS V14.01,2013-03-17 19:05:00,
2013-03-17 15:10:00,29.0,18.4,30.29,ENE,65,7.0,7.0,64,0.00,,OVC033,0.00,220.00,VWS V14.01,2013-03-17 19:10:00,
2013-03-17 15:15:00,28.8,17.8,30.29,ENE,61,7.0,7.0,63,0.00,,OVC033,0.00,181.00,VWS V14.01,2013-03-17 19:15:00,
2013-03-17 15:20:00,28.8,17.8,30.29,ENE,62,0.0,3.0,63,0.00,,OVC033,0.00,197.00,VWS V14.01,2013-03-17 19:20:00,
2013-03-17 15:25:00,29.0,18.0,30.29,ENE,59,13.0,13.0,63,0.00,,OVC033,0.00,156.00,VWS V14.01,2013-03-17 19:25:00,
2013-03-17 15:30:00,28.7,17.7,30.29,ENE,58,3.0,8.0,63,0.00,,OVC033,0.00,162.00,VWS V14.01,2013-03-17 19:30:00,
2013-03-17 15:35:00,28.8,17.8,30.29,East,91,10.0,14.0,63,0.00,,OVC033,0.00,179.00,VWS V14.01,2013-03-17 19:35:00,
2013-03-17 15:40:00,28.8,17.8,30.29,ENE,66,13.0,13.0,63,0.00,,OVC033,0.00,181.00,VWS V14.01,2013-03-17 19:40:00,
2013-03-17 15:45:00,28.8,17.4,30.29,ENE,64,2.0,8.0,62,0.00,,OVC033,0.00,181.00,VWS V14.01,2013-03-17 19:45:00,
2013-03-17 15:50:00,29.0,17.6,30.29,NE,55,5.0,5.0,62,0.00,,OVC033,0.00,230.00,VWS V14.01,2013-03-17 19:50:00,
2013-03-17 15:55:00,29.0,17.6,30.29,ENE,69,16.0,16.0,62,0.00,,OVC033,0.00,200.00,VWS V14.01,2013-03-17 19:55:00,
2013-03-17 16:00:00,29.1,18.5,30.28,ENE,59,10.0,10.0,64,0.00,,OVC033,0.00,148.00,VWS V14.01,2013-03-17 20:00:00,
2013-03-17 16:05:00,29.1,17.7,30.28,NE,55,4.0,5.0,62,0.00,,OVC030,0.00,163.00,VWS V14.01,2013-03-17 20:05:00,
2013-03-17 16:10:00,29.3,17.9,30.28,ENE,59,8.0,8.0,62,0.00,,OVC030,0.00,151.00,VWS V14.01,2013-03-17 20:10:00,
2013-03-17 16:15:00,29.1,17.3,30.28,ENE,78,2.0,10.0,61,0.00,,OVC030,0.00,151.00,VWS V14.01,2013-03-17 20:15:00,
2013-03-17 16:20:00,29.1,17.7,30.28,NE,51,2.0,6.0,62,0.00,,OVC030,0.00,97.00,VWS V14.01,2013-03-17 20:20:00,
2013-03-17 16:25:00,29.1,17.7,30.28,East,80,5.0,11.0,62,0.00,,OVC030,0.00,128.00,VWS V14.01,2013-03-17 20:25:00,
2013-03-17 16:30:00,29.0,17.6,30.28,ENE,61,9.0,9.0,62,0.00,,OVC030,0.00,172.00,VWS V14.01,2013-03-17 20:30:00,
2013-03-17 16:35:00,29.1,17.3,30.28,East,86,14.0,14.0,61,0.00,,OVC030,0.00,190.00,VWS V14.01,2013-03-17 20:35:00,
2013-03-17 16:40:00,29.4,17.6,30.28,ENE,63,5.0,8.0,61,0.00,,OVC030,0.00,176.00,VWS V14.01,2013-03-17 20:40:00,
2013-03-17 16:45:00,29.5,17.3,30.28,ENE,65,4.0,5.0,60,0.00,,OVC030,0.00,162.00,VWS V14.01,2013-03-17 20:45:00,
2013-03-17 16:50:00,29.5,17.7,30.28,ENE,78,3.0,14.0,61,0.00,,OVC030,0.00,111.00,VWS V14.01,2013-03-17 20:50:00,
2013-03-17 16:55:00,29.4,18.4,30.28,ENE,64,10.0,10.0,63,0.00,,OVC030,0.00,123.00,VWS V14.01,2013-03-17 20:55:00,
2013-03-17 17:00:00,29.1,17.3,30.28,ENE,59,13.0,13.0,61,0.00,,OVC030,0.00,142.00,VWS V14.01,2013-03-17 21:00:00,
2013-03-17 17:05:00,29.1,17.3,30.28,ENE,64,7.0,17.0,61,0.00,,OVC032,0.00,304.00,VWS V14.01,2013-03-17 21:05:00,
2013-03-17 17:10:00,29.1,17.0,30.28,East,80,9.0,10.0,60,0.00,,OVC032,0.00,167.00,VWS V14.01,2013-03-17 21:10:00,
2013-03-17 17:15:00,29.0,16.9,30.28,ENE,69,7.0,7.0,60,0.00,,OVC032,0.00,163.00,VWS V14.01,2013-03-17 21:15:00,
2013-03-17 17:20:00,29.1,16.6,30.28,East,88,9.0,9.0,59,0.00,,OVC032,0.00,373.00,VWS V14.01,2013-03-17 21:20:00,
2013-03-17 17:25:00,29.3,17.1,30.28,ENE,69,11.0,14.0,60,0.00,,OVC032,0.00,123.00,VWS V14.01,2013-03-17 21:25:00,
2013-03-17 17:30:00,29.3,17.5,30.28,ENE,57,8.0,8.0,61,0.00,,OVC032,0.00,139.00,VWS V14.01,2013-03-17 21:30:00,
2013-03-17 17:35:00,29.3,17.9,30.28,ENE,64,3.0,11.0,62,0.00,,OVC032,0.00,142.00,VWS V14.01,2013-03-17 21:35:00,
2013-03-17 17:40:00,29.4,18.4,30.28,East,99,8.0,14.0,63,0.00,,OVC032,0.00,109.00,VWS V14.01,2013-03-17 21:40:00,
2013-03-17 17:45:00,29.3,17.9,30.27,ENE,57,7.0,7.0,62,0.00,,OVC032,0.00,98.00,VWS V14.01,2013-03-17 21:45:00,
2013-03-17 17:50:00,29.1,17.7,30.27,ENE,77,9.0,14.0,62,0.00,,OVC032,0.00,111.00,VWS V14.01,2013-03-17 21:50:00,
2013-03-17 17:55:00,29.0,17.6,30.27,ENE,69,13.0,15.0,62,0.00,,OVC032,0.00,83.00,VWS V14.01,2013-03-17 21:55:00,
2013-03-17 18:00:00,28.8,17.1,30.27,East,88,9.0,16.0,61,0.00,,OVC032,0.00,102.00,VWS V14.01,2013-03-17 22:00:00,
2013-03-17 18:05:00,29.3,17.5,30.27,ENE,76,13.0,15.0,61,0.00,,OVC028,0.00,315.00,VWS V14.01,2013-03-17 22:05:00,
2013-03-17 18:10:00,29.5,17.3,30.27,East,84,16.0,17.0,60,0.00,,OVC028,0.00,236.00,VWS V14.01,2013-03-17 22:10:00,
2013-03-17 18:15:00,29.7,17.1,30.27,NE,55,5.0,15.0,59,0.00,,OVC028,0.00,134.00,VWS V14.01,2013-03-17 22:15:00,
2013-03-17 18:20:00,29.8,17.2,30.27,ENE,57,9.0,17.0,59,0.00,,OVC028,0.00,91.00,VWS V14.01,2013-03-17 22:20:00,
2013-03-17 18:25:00,29.5,17.3,30.27,ENE,77,3.0,14.0,60,0.00,,OVC028,0.00,60.00,VWS V14.01,2013-03-17 22:25:00,
2013-03-17 18:30:00,29.4,17.6,30.27,ENE,69,9.0,13.0,61,0.00,,OVC028,0.00,63.00,VWS V14.01,2013-03-17 22:30:00,
2013-03-17 18:35:00,29.3,17.5,30.27,ENE,63,12.0,14.0,61,0.00,,OVC028,0.00,46.00,VWS V14.01,2013-03-17 22:35:00,
2013-03-17 18:40:00,29.1,17.3,30.27,NE,44,6.0,12.0,61,0.00,,OVC028,0.00,49.00,VWS V14.01,2013-03-17 22:40:00,
2013-03-17 18:45:00,29.1,17.7,30.27,East,86,6.0,10.0,62,0.00,,OVC028,0.00,51.00,VWS V14.01,2013-03-17 22:45:00,
2013-03-17 18:50:00,29.0,17.2,30.27,ENE,74,11.0,16.0,61,0.00,,OVC028,0.00,42.00,VWS V14.01,2013-03-17 22:50:00,
2013-03-17 18:55:00,28.8,16.7,30.27,ENE,74,7.0,15.0,60,0.00,,OVC028,0.00,37.00,VWS V14.01,2013-03-17 22:55:00,
2013-03-17 19:00:00,29.0,17.2,30.27,NE,54,10.0,17.0,61,0.00,,OVC028,0.00,39.00,VWS V14.01,2013-03-17 23:00:00,
2013-03-17 19:05:00,29.0,17.6,30.27,East,84,9.0,14.0,62,0.00,,OVC028,0.00,32.00,VWS V14.01,2013-03-17 23:05:00,
2013-03-17 19:10:00,29.0,18.0,30.27,ENE,72,9.0,14.0,63,0.00,,OVC028,0.00,21.00,VWS V14.01,2013-03-17 23:10:00,
2013-03-17 19:15:00,28.8,17.4,30.26,East,81,13.0,15.0,62,0.00,,OVC028,0.00,11.00,VWS V14.01,2013-03-17 23:15:00,
2013-03-17 19:20:00,28.8,17.8,30.26,ENE,66,5.0,15.0,63,0.00,,OVC028,0.00,7.00,VWS V14.01,2013-03-17 23:20:00,
2013-03-17 19:25:00,28.8,18.2,30.26,East,89,8.0,14.0,64,0.00,,OVC028,0.00,9.00,VWS V14.01,2013-03-17 23:25:00,
2013-03-17 19:30:00,28.7,17.7,30.26,NE,55,9.0,16.0,63,0.00,,OVC028,0.00,7.00,VWS V14.01,2013-03-17 23:30:00,
2013-03-17 19:35:00,28.5,17.5,30.26,ENE,59,4.0,14.0,63,0.00,,OVC028,0.00,5.00,VWS V14.01,2013-03-17 23:35:00,
2013-03-17 19:40:00,28.5,17.9,30.26,ENE,63,8.0,11.0,64,0.00,,OVC028,0.00,0.00,VWS V14.01,2013-03-17 23:40:00,
2013-03-17 19:45:00,28.5,17.9,30.27,NE,56,7.0,14.0,64,0.00,,OVC028,0.00,0.00,VWS V14.01,2013-03-17 23:45:00,
2013-03-17 19:50:00,28.5,17.9,30.27,East,84,6.0,10.0,64,0.00,,OVC028,0.00,0.00,VWS V14.01,2013-03-17 23:50:00,
2013-03-17 19:55:00,28.7,18.4,30.27,ENE,76,7.0,13.0,65,0.00,,OVC028,0.00,0.00,VWS V14.01,2013-03-17 23:55:00,
2013-03-17 20:00:00,28.7,18.8,30.27,East,82,7.0,14.0,66,0.00,,OVC028,0.00,0.00,VWS V14.01,2013-03-18 00:00:00,
2013-03-17 20:05:00,28.7,18.8,30.27,East,91,6.0,12.0,66,0.00,,BKN024,0.00,0.00,VWS V14.01,2013-03-18 00:05:00,
2013-03-17 20:10:00,28.7,18.8,30.27,ENE,67,7.0,14.0,66,0.00,,BKN024,0.00,0.00,VWS V14.01,2013-03-18 00:10:00,
2013-03-17 20:15:00,28.5,18.6,30.27,ENE,72,4.0,14.0,66,0.00,,BKN024,0.00,0.00,VWS V14.01,2013-03-18 00:15:00,
2013-03-17 20:20:00,28.4,18.5,30.27,ENE,60,7.0,8.0,66,0.00,,BKN024,0.00,0.00,VWS V14.01,2013-03-18 00:20:00,
2013-03-17 20:25:00,28.4,18.5,30.27,ENE,62,8.0,12.0,66,0.00,,BKN024,0.00,0.00,VWS V14.01,2013-03-18 00:25:00,
2013-03-17 20:30:00,28.4,18.5,30.27,ENE,71,11.0,12.0,66,0.00,,BKN024,0.00,0.00,VWS V14.01,2013-03-18 00:30:00,
2013-03-17 20:35:00,28.4,18.1,30.27,ENE,72,3.0,13.0,65,0.00,,BKN024,0.00,0.00,VWS V14.01,2013-03-18 00:35:00,
2013-03-17 20:40:00,28.4,18.1,30.27,NE,46,5.0,13.0,65,0.00,,BKN024,0.00,0.00,VWS V14.01,2013-03-18 00:40:00,
2013-03-17 20:45:00,28.2,18.0,30.28,ENE,65,10.0,10.0,65,0.00,,BKN024,0.00,0.00,VWS V14.01,2013-03-18 00:45:00,
2013-03-17 20:50:00,28.2,18.3,30.28,ENE,62,4.0,11.0,66,0.00,,BKN024,0.00,0.00,VWS V14.01,2013-03-18 00:50:00,
2013-03-17 20:55:00,28.1,18.2,30.28,ENE,73,9.0,13.0,66,0.00,,BKN024,0.00,0.00,VWS V14.01,2013-03-18 00:55:00,
2013-03-17 21:00:00,28.1,17.9,30.28,ENE,74,9.0,13.0,65,0.00,,BKN024,0.00,0.00,VWS V14.01,2013-03-18 01:00:00,
2013-03-17 21:05:00,27.9,17.7,30.28,ENE,57,5.0,12.0,65,0.00,,CLR,0.00,0.00,VWS V14.01,2013-03-18 01:05:00,
2013-03-17 21:10:00,27.9,18.0,30.28,ENE,76,11.0,11.0,66,0.00,,CLR,0.00,0.00,VWS V14.01,2013-03-18 01:10:00,
2013-03-17 21:15:00,27.9,18.0,30.28,ENE,69,5.0,12.0,66,0.00,,CLR,0.00,0.00,VWS V14.01,2013-03-18 01:15:00,
2013-03-17 21:20:00,27.9,18.0,30.28,NE,54,5.0,14.0,66,0.00,,CLR,0.00,0.00,VWS V14.01,2013-03-18 01:20:00,
2013-03-17 21:25:00,27.9,18.4,30.28,East,80,10.0,15.0,67,0.00,,CLR,0.00,0.00,VWS V14.01,2013-03-18 01:25:00,
2013-03-17 21:30:00,28.1,18.9,30.28,ENE,69,5.0,13.0,68,0.00,,CLR,0.00,0.00,VWS V14.01,2013-03-18 01:30:00,
2013-03-17 21:35:00,28.1,18.6,30.28,ENE,67,7.0,13.0,67,0.00,,CLR,0.00,0.00,VWS V14.01,2013-03-18 01:35:00,
2013-03-17 21:40:00,27.9,18.4,30.28,ENE,75,4.0,11.0,67,0.00,,CLR,0.00,0.00,VWS V14.01,2013-03-18 01:40:00,
2013-03-17 21:45:00,28.1,18.2,30.28,ENE,57,9.0,16.0,66,0.00,,CLR,0.00,0.00,VWS V14.01,2013-03-18 01:45:00,
2013-03-17 21:50:00,27.9,18.4,30.28,East,88,3.0,9.0,67,0.00,,CLR,0.00,0.00,VWS V14.01,2013-03-18 01:50:00,
2013-03-17 21:55:00,27.9,18.4,30.28,ENE,65,8.0,12.0,67,0.00,,CLR,0.00,0.00,VWS V14.01,2013-03-18 01:55:00,
2013-03-17 22:00:00,27.9,18.0,30.27,East,98,7.0,11.0,66,0.00,,CLR,0.00,0.00,VWS V14.01,2013-03-18 02:00:00,
2013-03-17 22:05:00,28.1,18.6,30.27,East,81,7.0,15.0,67,0.00,,CLR,0.00,0.00,VWS V14.01,2013-03-18 02:05:00,
2013-03-17 22:10:00,28.1,18.9,30.27,East,80,5.0,12.0,68,0.00,,CLR,0.00,0.00,VWS V14.01,2013-03-18 02:10:00,
2013-03-17 22:15:00,28.1,18.9,30.27,East,82,5.0,13.0,68,0.00,,CLR,0.00,0.00,VWS V14.01,2013-03-18 02:15:00,
2013-03-17 22:20:00,27.9,18.7,30.27,East,85,7.0,11.0,68,0.00,,CLR,0.00,0.00,VWS V14.01,2013-03-18 02:20:00,
2013-03-17 22:25:00,27.9,18.7,30.27,ENE,78,5.0,12.0,68,0.00,,CLR,0.00,0.00,VWS V14.01,2013-03-18 02:25:00,
2013-03-17 22:30:00,27.9,18.7,30.27,NE,51,12.0,15.0,68,0.00,,CLR,0.00,0.00,VWS V14.01,2013-03-18 02:30:00,
2013-03-17 22:35:00,28.1,18.9,30.27,ENE,58,5.0,15.0,68,0.00,,CLR,0.00,0.00,VWS V14.01,2013-03-18 02:35:00,
2013-03-17 22:40:00,28.1,18.9,30.27,East,99,13.0,13.0,68,0.00,,CLR,0.00,0.00,VWS V14.01,2013-03-18 02:40:00,
2013-03-17 22:45:00,28.1,18.9,30.25,ENE,64,9.0,15.0,68,0.00,,CLR,0.00,0.00,VWS V14.01,2013-03-18 02:45:00,
2013-03-17 22:50:00,28.1,19.3,30.25,ENE,61,10.0,14.0,69,0.00,,CLR,0.00,0.00,VWS V14.01,2013-03-18 02:50:00,
2013-03-17 22:55:00,27.9,19.1,30.25,ENE,68,13.0,13.0,69,0.00,,CLR,0.00,0.00,VWS V14.01,2013-03-18 02:55:00,
2013-03-17 23:00:00,27.9,19.4,30.25,ENE,57,8.0,11.0,70,0.00,,CLR,0.00,0.00,VWS V14.01,2013-03-18 03:00:00,
2013-03-17 23:05:00,27.9,19.4,30.25,ENE,68,3.0,15.0,70,0.00,,CLR,0.00,0.00,VWS V14.01,2013-03-18 03:05:00,
2013-03-17 23:10:00,27.8,19.0,30.25,NE,55,12.0,14.0,69,0.00,,CLR,0.00,0.00,VWS V14.01,2013-03-18 03:10:00,
2013-03-17 23:15:00,27.9,19.1,30.24,ENE,70,10.0,20.0,69,0.00,,CLR,0.00,0.00,VWS V14.01,2013-03-18 03:15:00,
2013-03-17 23:20:00,27.9,19.1,30.24,East,82,7.0,14.0,69,0.00,,CLR,0.00,0.00,VWS V14.01,2013-03-18 03:20:00,
2013-03-17 23:25:00,27.8,19.0,30.24,ENE,65,9.0,13.0,69,0.00,,CLR,0.00,0.00,VWS V14.01,2013-03-18 03:25:00,
2013-03-17 23:30:00,27.8,19.0,30.22,ENE,74,10.0,13.0,69,0.00,,CLR,0.00,0.00,VWS V14.01,2013-03-18 03:30:00,
2013-03-17 23:35:00,27.8,19.3,30.22,ENE,57,14.0,16.0,70,0.00,,CLR,0.00,0.00,VWS V14.01,2013-03-18 03:35:00,
2013-03-17 23:40:00,27.8,19.3,30.22,ENE,73,3.0,15.0,70,0.00,,CLR,0.00,0.00,VWS V14.01,2013-03-18 03:40:00,
2013-03-17 23:45:00,27.8,19.0,30.22,NE,55,10.0,15.0,69,0.00,,CLR,0.00,0.00,VWS V14.01,2013-03-18 03:45:00,
2013-03-17 23:50:00,27.8,19.0,30.22,ENE,69,5.0,15.0,69,0.00,,CLR,0.00,0.00,VWS V14.01,2013-03-18 03:50:00,
2013-03-17 23:55:00,27.8,19.0,30.22,East,94,13.0,15.0,69,0.00,,CLR,0.00,0.00,VWS V14.01,2013-03-18 03:55:00,